If you wish to contribute or participate in the discussions about articles you are invited to join SKYbrary as a registered user

 Actions

Évreux-Fauville (BA 105) Air Base

From SKYbrary Wiki

LFOE
Airport
ICAO: LFOE
Summary
Name Évreux-Fauville (BA 105) Air Base
Region Europe
Territory France FR.gif
Location , Haute-Normandie
Serving Evreux
Elevation 141.427 m
464 ft
464 ft141.427 m
Type medium airport
Coordinates 49° 1' 43.21" N, 1° 13' 11.51" E
Runways
Designator Length Width Surface ROPS
4/22 2995 m9,826.116 ft
45 m147.638 ft
ASP /


METAR
Observation LFOE 201600Z AUTO 34006KT 280V040 CAVOK 21/07 Q1025
Station Evreux
Date/Time 20 August 2019 16:00:00
Wind direction 340°
Wind speed 06 kts
Lowest cloud amount clouds and visibility OK
Temperature 21°C
Dew point 7°C
Humidity 40%
QNH 1025 hPa
Weather condition n/a